Time;durP1;ratioP1;P1;durP2;ratioP2;P2;SDS_P1;SDS_P2;PMS_P1;PMS_P2;Temp;Humidity;BMP_temperature;BMP_pressure;BME280_temperature;BME280_humidity;BME280_pressure;Samples;Min_cycle;Max_cycle;Signal;HPM_P1;HPM_P2
2024/03/25 00:01:45;;;;;;;15.20;2.80;;;;;;;9.44;58.70;100717.94;4984970;28;125150;-62
2024/03/25 00:04:12;;;;;;;15.38;3.47;;;;;;;9.42;58.88;100717.13;4974445;28;123935;-62
2024/03/25 00:06:38;;;;;;;19.80;2.90;;;;;;;9.40;58.78;100716.34;4976738;28;115306;-62
2024/03/25 00:09:07;;;;;;;11.50;3.60;;;;;;;9.38;58.84;100710.25;4982981;28;115192;-63
2024/03/25 00:11:34;;;;;;;15.40;3.40;;;;;;;9.35;58.85;100714.75;4981350;28;124027;-62
2024/03/25 00:14:00;;;;;;;14.02;3.35;;;;;;;9.33;59.05;100705.19;4977096;28;123904;-63
2024/03/25 00:16:27;;;;;;;15.52;3.17;;;;;;;9.31;58.99;100709.69;4964640;28;114678;-63
2024/03/25 00:18:53;;;;;;;17.52;3.38;;;;;;;9.28;59.01;100709.78;4979335;28;114038;-62
2024/03/25 00:21:19;;;;;;;21.50;3.70;;;;;;;9.26;58.88;100714.28;4984415;28;124253;-63
2024/03/25 00:23:45;;;;;;;20.05;3.85;;;;;;;9.23;59.15;100714.41;4978047;28;125210;-63
2024/03/25 00:26:12;;;;;;;27.85;4.07;;;;;;;9.21;58.96;100716.25;4974302;28;115259;-62
2024/03/25 00:28:39;;;;;;;23.85;3.47;;;;;;;9.19;58.93;100718.09;4967915;28;116717;-62
2024/03/25 00:31:05;;;;;;;18.05;3.70;;;;;;;9.15;58.99;100715.59;4985046;28;124065;-63
2024/03/25 00:33:32;;;;;;;19.13;3.85;;;;;;;9.13;59.14;100719.22;4973251;28;124040;-63
2024/03/25 00:35:59;;;;;;;15.40;3.45;;;;;;;9.11;59.08;100711.34;4987624;28;114359;-62
2024/03/25 00:38:25;;;;;;;19.65;3.80;;;;;;;9.09;59.30;100713.19;4977613;28;114230;-63
2024/03/25 00:40:52;;;;;;;22.20;4.32;;;;;;;9.04;58.95;100709.91;4981009;28;124016;-62
2024/03/25 00:43:18;;;;;;;18.10;3.97;;;;;;;9.02;59.25;100706.44;4984317;28;124258;-62
2024/03/25 00:45:45;;;;;;;19.02;3.67;;;;;;;8.99;58.96;100711.84;4983084;28;114904;-64
2024/03/25 00:48:11;;;;;;;20.45;3.67;;;;;;;8.97;59.28;100708.41;4959010;28;113959;-62
2024/03/25 00:50:38;;;;;;;22.08;3.78;;;;;;;8.94;59.24;100697.97;4973083;28;124263;-63
2024/03/25 00:53:04;;;;;;;18.23;3.88;;;;;;;8.92;59.13;100699.81;4954271;28;123311;-65
2024/03/25 00:55:31;;;;;;;22.30;3.95;;;;;;;8.89;59.15;100706.09;4971361;28;114053;-62
2024/03/25 00:57:57;;;;;;;22.13;4.40;;;;;;;8.86;59.43;100705.34;4981419;28;114307;-62
2024/03/25 01:00:23;;;;;;;33.28;10.75;;;;;;;8.83;59.34;100701.03;4977014;28;124389;-63
2024/03/25 01:02:49;;;;;;;49.13;20.83;;;;;;;8.79;59.26;100698.59;4979416;28;125278;-62
2024/03/25 01:05:16;;;;;;;61.13;25.42;;;;;;;8.76;59.05;100694.31;4980556;28;114753;-63
2024/03/25 01:07:43;;;;;;;60.80;24.88;;;;;;;8.71;59.53;100697.13;4978707;28;114655;-63
2024/03/25 01:10:09;;;;;;;48.03;19.63;;;;;;;8.68;59.50;100697.25;4977574;28;123891;-62
2024/03/25 01:12:35;;;;;;;45.47;14.75;;;;;;;8.65;59.32;100707.91;4976088;28;125487;-62
2024/03/25 01:15:03;;;;;;;35.42;12.32;;;;;;;8.61;59.33;100705.44;4978750;28;115036;-62
2024/03/25 01:17:29;;;;;;;25.75;9.80;;;;;;;8.57;59.42;100710.88;4984958;28;115750;-62
2024/03/25 01:19:55;;;;;;;28.33;6.75;;;;;;;8.53;59.63;100713.66;4980019;28;124505;-62
2024/03/25 01:22:22;;;;;;;25.13;6.20;;;;;;;8.49;59.34;100709.44;4985781;28;123890;-62
2024/03/25 01:24:48;;;;;;;27.63;5.53;;;;;;;8.47;59.60;100713.91;4980833;28;114287;-62
2024/03/25 01:27:14;;;;;;;23.98;5.10;;;;;;;8.43;59.34;100712.31;4985353;28;114270;-62
2024/03/25 01:29:41;;;;;;;20.90;4.32;;;;;;;8.38;59.37;100710.69;4975976;28;124048;-63
2024/03/25 01:32:07;;;;;;;17.73;5.18;;;;;;;8.35;59.34;100716.06;4988040;28;123938;-63
2024/03/25 01:34:33;;;;;;;18.50;4.85;;;;;;;8.31;59.45;100714.47;4977687;28;114612;-62
2024/03/25 01:36:59;;;;;;;27.15;4.90;;;;;;;8.30;59.60;100707.44;4982721;28;114073;-62
2024/03/25 01:39:26;;;;;;;26.90;5.10;;;;;;;8.27;59.69;100707.59;4973402;28;124478;-64
2024/03/25 01:41:52;;;;;;;23.85;4.63;;;;;;;8.25;59.49;100704.16;4974816;28;124802;-62
2024/03/25 01:44:18;;;;;;;21.88;4.50;;;;;;;8.21;59.46;100707.78;4961955;28;113426;-62
2024/03/25 01:46:45;;;;;;;21.20;4.60;;;;;;;8.18;59.87;100707.94;4979137;28;114614;-62
2024/03/25 01:49:11;;;;;;;26.05;4.80;;;;;;;8.15;59.87;100713.31;4985218;28;124425;-63
2024/03/25 01:51:39;;;;;;;19.45;3.92;;;;;;;8.12;59.50;100714.28;4978123;28;124170;-62
2024/03/25 01:54:06;;;;;;;24.45;4.30;;;;;;;8.10;59.72;100710.84;4984541;28;114254;-62
2024/03/25 01:56:34;;;;;;;22.98;4.55;;;;;;;8.07;59.43;100720.66;4980965;28;114459;-62
2024/03/25 01:59:01;;;;;;;25.77;4.13;;;;;;;8.05;59.48;100725.13;4981482;28;124455;-62
2024/03/25 02:01:29;;;;;;;20.77;4.57;;;;;;;8.03;59.66;100724.34;4982944;28;123552;-62
2024/03/25 02:03:56;;;;;;;20.85;4.00;;;;;;;8.02;59.65;100722.59;4962507;28;115187;-62
2024/03/25 02:06:26;;;;;;;23.42;4.10;;;;;;;7.99;59.66;100718.31;4979567;28;115421;-62
2024/03/25 02:08:54;;;;;;;20.33;4.32;;;;;;;7.98;59.75;100721.84;4985943;28;124120;-62
2024/03/25 02:11:23;;;;;;;11.55;3.50;;;;;;;7.96;59.89;100719.25;4979458;28;123939;-66
2024/03/25 02:13:50;;;;;;;16.48;3.50;;;;;;;7.94;59.79;100721.09;4980414;28;114369;-63
2024/03/25 02:16:18;;;;;;;21.52;3.88;;;;;;;7.93;60.00;100714.09;4979378;28;114031;-63
2024/03/25 02:18:44;;;;;;;19.45;3.75;;;;;;;7.93;59.97;100719.38;4979565;28;124130;-62
2024/03/25 02:21:11;;;;;;;29.98;4.40;;;;;;;7.95;60.20;100711.44;4978396;28;123652;-62
2024/03/25 02:23:39;;;;;;;24.55;4.50;;;;;;;7.94;60.05;100717.59;4987620;28;114300;-62
2024/03/25 02:26:05;;;;;;;23.02;4.78;;;;;;;7.95;60.09;100716.69;4979152;28;114198;-62
2024/03/25 02:28:31;;;;;;;24.27;4.25;;;;;;;7.96;60.28;100716.63;4982479;28;124254;-64
2024/03/25 02:30:58;;;;;;;19.88;4.07;;;;;;;7.96;60.27;100713.97;4966736;28;121982;-62
2024/03/25 02:33:24;;;;;;;22.55;4.68;;;;;;;7.97;60.25;100721.00;4967479;28;114253;-62
2024/03/25 02:35:50;;;;;;;23.33;4.60;;;;;;;7.98;60.33;100722.69;4988037;28;114389;-62
2024/03/25 02:38:18;;;;;;;26.88;4.93;;;;;;;7.99;60.25;100727.06;4986505;28;124313;-61
2024/03/25 02:40:45;;;;;;;23.92;4.88;;;;;;;8.02;60.57;100722.59;4979023;28;124204;-62
2024/03/25 02:43:11;;;;;;;18.50;4.60;;;;;;;8.02;60.51;100712.03;4990081;28;114675;-62
2024/03/25 02:45:38;;;;;;;27.88;4.50;;;;;;;8.04;60.55;100718.13;4976252;28;114303;-62
2024/03/25 02:48:05;;;;;;;26.05;4.30;;;;;;;8.06;60.55;100718.91;4973639;28;124318;-62
2024/03/25 02:50:31;;;;;;;24.73;3.88;;;;;;;8.07;60.30;100721.50;4974394;28;123932;-62
2024/03/25 02:52:57;;;;;;;18.70;4.25;;;;;;;8.09;60.36;100718.81;4979462;28;115404;-62
2024/03/25 02:55:24;;;;;;;19.85;4.40;;;;;;;8.10;60.38;100717.88;4984803;28;115330;-62
2024/03/25 02:57:50;;;;;;;20.17;3.85;;;;;;;8.10;60.05;100712.59;4978623;28;124042;-62
2024/03/25 03:00:17;;;;;;;18.27;3.78;;;;;;;8.09;60.34;100713.53;4981817;28;124606;-64
2024/03/25 03:02:43;;;;;;;21.27;3.88;;;;;;;8.08;60.45;100706.53;4976524;28;114476;-62
2024/03/25 03:05:09;;;;;;;17.70;3.95;;;;;;;8.08;60.13;100706.53;4980879;28;115085;-62
2024/03/25 03:07:36;;;;;;;21.23;3.83;;;;;;;8.08;60.22;100706.53;4958928;28;123269;-64
2024/03/25 03:10:02;;;;;;;15.85;4.28;;;;;;;8.08;60.19;100701.25;4978175;28;124234;-62
2024/03/25 03:12:29;;;;;;;21.00;3.83;;;;;;;8.07;60.18;100699.56;4986697;28;114188;-62
2024/03/25 03:14:55;;;;;;;25.13;4.10;;;;;;;8.09;60.19;100695.09;4983046;28;114066;-62
2024/03/25 03:17:21;;;;;;;22.77;3.90;;;;;;;8.09;60.45;100692.44;4975657;28;124035;-62
2024/03/25 03:19:48;;;;;;;18.05;3.22;;;;;;;8.08;60.59;100699.50;4977190;28;124634;-62
2024/03/25 03:22:14;;;;;;;17.40;3.60;;;;;;;8.09;60.34;100703.00;4976017;28;114221;-62
2024/03/25 03:24:40;;;;;;;19.77;3.83;;;;;;;8.10;60.51;100699.41;4956757;28;114890;-62
2024/03/25 03:27:07;;;;;;;20.05;4.35;;;;;;;8.10;60.24;100695.03;4974320;28;124435;-62
2024/03/25 03:29:33;;;;;;;20.40;4.28;;;;;;;8.11;60.35;100695.88;4981184;28;124940;-62
2024/03/25 03:31:59;;;;;;;19.90;3.65;;;;;;;8.11;60.59;100701.16;4988925;28;114664;-62
2024/03/25 03:34:26;;;;;;;18.90;3.67;;;;;;;8.12;60.33;100693.19;4975495;28;114905;-62
2024/03/25 03:36:52;;;;;;;16.85;3.50;;;;;;;8.11;60.27;100690.59;4974148;28;124004;-62
2024/03/25 03:39:19;;;;;;;17.52;3.92;;;;;;;8.11;60.72;100685.34;4976034;28;124853;-62
2024/03/25 03:41:45;;;;;;;16.45;3.80;;;;;;;8.10;60.50;100683.59;4977085;28;115068;-62
2024/03/25 03:44:13;;;;;;;21.80;4.20;;;;;;;8.10;60.10;100688.88;4971746;28;115066;-62
2024/03/25 03:46:39;;;;;;;20.73;3.95;;;;;;;8.08;60.36;100680.16;4979982;28;124322;-63
2024/03/25 03:49:05;;;;;;;23.95;3.60;;;;;;;8.06;60.21;100684.63;4979396;28;124245;-62
2024/03/25 03:51:32;;;;;;;15.32;3.63;;;;;;;8.04;60.16;100689.09;4980108;28;114135;-62
2024/03/25 03:53:58;;;;;;;16.50;3.72;;;;;;;8.04;60.48;100683.84;4972270;28;113845;-62
2024/03/25 03:56:24;;;;;;;19.80;3.90;;;;;;;8.03;60.04;100684.78;4976681;28;124320;-62
2024/03/25 03:58:50;;;;;;;19.10;3.85;;;;;;;8.02;60.49;100696.22;4973208;28;124160;-62
2024/03/25 04:01:18;;;;;;;18.15;4.50;;;;;;;8.01;60.05;100695.38;4974545;28;114533;-62
2024/03/25 04:03:44;;;;;;;21.15;4.00;;;;;;;7.97;60.17;100694.63;4984283;28;114002;-62
2024/03/25 04:06:12;;;;;;;17.65;3.67;;;;;;;7.95;60.23;100691.19;4973829;28;124328;-62
2024/03/25 04:08:41;;;;;;;20.60;3.53;;;;;;;7.92;60.25;100691.28;4977454;28;124784;-62
2024/03/25 04:11:08;;;;;;;19.83;3.60;;;;;;;7.89;59.99;100690.53;4978639;28;114861;-62
2024/03/25 04:13:34;;;;;;;18.40;3.35;;;;;;;7.85;60.15;100684.50;4976741;28;114324;-62
2024/03/25 04:16:05;;;;;;;17.23;2.83;;;;;;;7.83;59.98;100696.88;4980311;28;124013;-62
2024/03/25 04:18:33;;;;;;;17.30;3.53;;;;;;;7.79;59.97;100696.13;4981252;28;123982;-62
2024/03/25 04:20:59;;;;;;;22.35;4.00;;;;;;;7.76;59.95;100690.09;4980417;28;114093;-62
2024/03/25 04:23:26;;;;;;;17.65;3.10;;;;;;;7.72;60.10;100693.78;4977877;28;114323;-62
2024/03/25 04:25:52;;;;;;;19.58;4.03;;;;;;;7.68;60.06;100690.38;4983711;28;123997;-62
2024/03/25 04:28:20;;;;;;;18.60;3.22;;;;;;;7.65;59.93;100693.16;4972131;28;123856;-62
2024/03/25 04:30:53;;;;;;;19.70;3.80;;;;;;;7.62;60.21;100692.38;4972226;28;115308;-62
2024/03/25 04:33:20;;;;;;;17.60;3.45;;;;;;;7.58;59.61;100681.94;4961264;28;115260;-62
2024/03/25 04:35:47;;;;;;;20.95;3.83;;;;;;;7.56;59.93;100688.19;4969869;28;123196;-62
2024/03/25 04:38:16;;;;;;;21.98;3.83;;;;;;;7.53;60.15;100691.78;4988194;28;124922;-62
2024/03/25 04:40:44;;;;;;;20.27;3.28;;;;;;;7.51;60.14;100690.97;4960811;28;113375;-62
2024/03/25 04:43:10;;;;;;;19.92;3.58;;;;;;;7.48;59.86;100693.72;4976281;28;113717;-63
2024/03/25 04:45:36;;;;;;;14.68;3.80;;;;;;;7.47;59.93;100699.91;4977736;28;124491;-62
2024/03/25 04:48:03;;;;;;;18.42;3.55;;;;;;;7.45;60.25;100700.88;4964903;28;122642;-63
2024/03/25 04:50:30;;;;;;;14.57;3.45;;;;;;;7.41;60.05;100700.97;4978247;28;115070;-62
2024/03/25 04:52:57;;;;;;;17.20;3.10;;;;;;;7.40;60.11;100703.66;4973291;28;115234;-62
2024/03/25 04:55:23;;;;;;;14.55;3.38;;;;;;;7.38;59.92;100705.50;4978126;28;123566;-62
2024/03/25 04:57:49;;;;;;;20.63;3.92;;;;;;;7.35;59.97;100705.63;4979493;28;124201;-62
2024/03/25 05:00:16;;;;;;;19.27;3.55;;;;;;;7.32;60.14;100698.66;4986944;28;114301;-62
2024/03/25 05:02:42;;;;;;;8.32;2.00;;;;;;;7.31;59.96;100701.34;4989731;28;114524;-62
2024/03/25 05:05:09;;;;;;;9.52;2.55;;;;;;;7.29;60.23;100700.53;4980626;28;124739;-62
2024/03/25 05:07:36;;;;;;;12.48;2.15;;;;;;;7.28;60.13;100693.56;4978267;28;125446;-62
2024/03/25 05:10:04;;;;;;;7.88;2.17;;;;;;;7.26;59.82;100693.59;4977814;28;114892;-62
2024/03/25 05:12:30;;;;;;;11.43;1.77;;;;;;;7.25;59.82;100698.91;4966250;28;113805;-62
2024/03/25 05:14:57;;;;;;;14.02;2.20;;;;;;;7.24;59.86;100707.75;4981918;28;124069;-62
2024/03/25 05:17:23;;;;;;;7.90;2.13;;;;;;;7.20;60.06;100713.09;4978811;28;124169;-62
2024/03/25 05:19:50;;;;;;;7.93;1.98;;;;;;;7.18;59.95;100709.66;4976256;28;115320;-62
2024/03/25 05:22:17;;;;;;;8.60;2.30;;;;;;;7.16;60.01;100711.50;4970307;28;114794;-62
2024/03/25 05:24:44;;;;;;;13.05;2.22;;;;;;;7.13;59.72;100714.22;4964490;28;123127;-62
2024/03/25 05:27:11;;;;;;;8.38;2.28;;;;;;;7.10;59.83;100714.34;4975958;28;125269;-62
2024/03/25 05:29:37;;;;;;;7.85;2.22;;;;;;;7.10;59.71;100721.34;4984496;28;114448;-62
2024/03/25 05:32:03;;;;;;;17.95;4.00;;;;;;;7.08;59.84;100724.03;4977895;28;113696;-62
2024/03/25 05:34:31;;;;;;;12.43;2.50;;;;;;;7.05;59.68;100729.41;4966152;28;124410;-63
2024/03/25 05:36:57;;;;;;;9.00;2.40;;;;;;;7.03;59.66;100725.97;4983651;28;123555;-62
2024/03/25 05:39:24;;;;;;;10.05;2.40;;;;;;;7.03;59.47;100725.97;4984262;28;114278;-62
2024/03/25 05:41:50;;;;;;;8.23;2.38;;;;;;;7.01;59.49;100727.78;4965800;28;113879;-63
2024/03/25 05:44:17;;;;;;;6.70;2.38;;;;;;;7.00;59.66;100731.31;4988592;28;124696;-62
2024/03/25 05:46:43;;;;;;;19.35;2.90;;;;;;;6.99;59.94;100727.00;4966226;28;123162;-63
2024/03/25 05:49:10;;;;;;;11.55;2.83;;;;;;;6.97;59.72;100731.44;4989634;28;114190;-62
2024/03/25 05:51:36;;;;;;;18.38;2.97;;;;;;;6.97;59.71;100728.81;4992480;28;113952;-62
2024/03/25 05:54:02;;;;;;;10.38;3.03;;;;;;;6.96;59.55;100734.97;4974968;28;124828;-62
2024/03/25 05:56:32;;;;;;;10.20;3.17;;;;;;;6.94;59.60;100731.53;4980932;28;124408;-62
2024/03/25 05:58:58;;;;;;;16.63;3.75;;;;;;;6.92;59.98;100728.09;4985823;28;114254;-62
2024/03/25 06:01:26;;;;;;;14.20;3.85;;;;;;;6.90;59.62;100725.50;4974858;28;114305;-62
2024/03/25 06:03:52;;;;;;;9.45;3.75;;;;;;;6.90;60.10;100724.66;4968386;28;123140;-62
2024/03/25 06:06:19;;;;;;;11.35;3.72;;;;;;;6.90;59.91;100719.38;4982445;28;124169;-62
2024/03/25 06:08:45;;;;;;;9.85;3.28;;;;;;;6.90;59.91;100724.66;4978535;28;115546;-62
2024/03/25 06:11:12;;;;;;;12.73;3.95;;;;;;;6.90;60.17;100724.66;4982840;28;114856;-63
2024/03/25 06:13:38;;;;;;;12.93;4.18;;;;;;;6.90;60.02;100714.97;4985500;28;125227;-62
2024/03/25 06:16:04;;;;;;;11.68;4.40;;;;;;;6.92;60.29;100720.19;4985520;28;124265;-62
2024/03/25 06:18:31;;;;;;;12.80;4.43;;;;;;;6.93;59.99;100719.25;4982557;28;114019;-63
2024/03/25 06:20:57;;;;;;;13.38;4.18;;;;;;;6.94;60.23;100715.72;4975146;28;113992;-62
2024/03/25 06:23:25;;;;;;;16.02;4.95;;;;;;;6.97;60.08;100715.66;4988468;28;123566;-62
2024/03/25 06:25:53;;;;;;;19.88;4.53;;;;;;;6.99;60.14;100711.19;4977154;28;124570;-63
2024/03/25 06:28:20;;;;;;;13.35;4.55;;;;;;;7.04;60.24;100717.13;4975580;28;114561;-62
2024/03/25 06:36:18;;;;;;;17.75;5.75;;;;;;;7.28;60.36;100706.72;4974200;28;122786;-62
2024/03/25 06:38:45;;;;;;;14.55;5.05;;;;;;;7.36;60.54;100707.31;4987160;28;114413;-62
2024/03/25 06:41:11;;;;;;;17.50;5.97;;;;;;;7.47;60.71;100710.44;4972623;28;114011;-63
2024/03/25 06:43:38;;;;;;;16.13;5.90;;;;;;;7.58;60.71;100703.03;4964582;28;124253;-65
2024/03/25 06:46:06;;;;;;;16.10;5.13;;;;;;;7.69;60.66;100693.91;4983425;28;124682;-65
2024/03/25 06:48:34;;;;;;;19.90;5.90;;;;;;;7.82;60.80;100692.53;4979448;28;114483;-65
2024/03/25 06:51:02;;;;;;;16.83;5.80;;;;;;;7.92;61.01;100696.56;4980091;28;114338;-65
2024/03/25 06:53:29;;;;;;;12.75;5.43;;;;;;;8.06;60.80;100692.53;4960821;28;124468;-65
2024/03/25 06:55:56;;;;;;;15.70;6.28;;;;;;;8.19;60.59;100693.81;4975592;28;124015;-65
2024/03/25 06:58:25;;;;;;;16.52;5.38;;;;;;;8.33;60.77;100695.94;4979614;28;115370;-65
2024/03/25 07:00:53;;;;;;;14.00;6.25;;;;;;;8.47;60.71;100708.63;4963840;28;114129;-65
2024/03/25 07:03:21;;;;;;;12.27;5.65;;;;;;;8.60;60.83;100698.47;4987578;28;124804;-65
2024/03/25 07:05:49;;;;;;;14.88;6.38;;;;;;;8.75;60.46;100697.84;4980518;28;124169;-65
2024/03/25 07:08:15;;;;;;;19.30;6.55;;;;;;;8.89;61.00;100699.94;4973192;28;114088;-65
2024/03/25 07:10:42;;;;;;;20.85;6.38;;;;;;;9.05;61.10;100701.03;4966456;28;114041;-65
2024/03/25 07:13:08;;;;;;;16.90;6.82;;;;;;;9.21;60.86;100703.91;4982576;28;124505;-65
2024/03/25 07:15:36;;;;;;;20.83;6.93;;;;;;;9.36;60.73;100691.81;4981777;28;124163;-64
2024/03/25 07:18:03;;;;;;;16.20;6.68;;;;;;;9.52;61.21;100697.31;4979386;28;114600;-65
2024/03/25 07:20:31;;;;;;;20.98;6.60;;;;;;;9.65;60.68;100689.72;4978340;28;114096;-65
2024/03/25 07:22:57;;;;;;;15.23;7.00;;;;;;;9.80;60.80;100699.63;4978446;28;124909;-65
2024/03/25 07:25:25;;;;;;;18.02;6.78;;;;;;;9.96;61.07;100698.94;4991555;28;123901;-65
2024/03/25 07:27:52;;;;;;;15.55;6.97;;;;;;;10.10;61.01;100702.69;4965667;28;113428;-65
2024/03/25 07:30:19;;;;;;;20.42;6.63;;;;;;;10.24;60.59;100688.81;4980063;28;113913;-65
2024/03/25 07:32:45;;;;;;;15.68;7.03;;;;;;;10.37;60.72;100683.00;4989230;28;124142;-66
2024/03/25 07:35:12;;;;;;;16.40;7.00;;;;;;;10.48;60.68;100693.94;4975412;28;124631;-65
2024/03/25 07:37:38;;;;;;;16.60;6.57;;;;;;;10.60;60.60;100693.34;4980387;28;114890;-65
2024/03/25 07:40:06;;;;;;;14.95;6.30;;;;;;;10.68;60.54;100693.84;4970641;28;113023;-65
2024/03/25 07:42:33;;;;;;;15.50;6.38;;;;;;;10.78;60.43;100688.13;4979758;28;124567;-65
2024/03/25 07:45:00;;;;;;;13.68;6.05;;;;;;;10.87;60.35;100687.66;4991321;28;124616;-65
2024/03/25 07:47:26;;;;;;;12.98;6.18;;;;;;;10.95;60.36;100685.50;4964499;28;115673;-64
2024/03/25 07:49:52;;;;;;;12.65;5.85;;;;;;;11.03;60.16;100683.31;4974867;28;115813;-64
2024/03/25 07:52:19;;;;;;;17.88;6.15;;;;;;;11.12;60.03;100686.47;4981950;28;124105;-64
2024/03/25 07:54:45;;;;;;;16.30;5.78;;;;;;;11.20;59.93;100684.28;4985696;28;123970;-65
2024/03/25 07:57:11;;;;;;;18.40;5.60;;;;;;;11.24;59.91;100680.53;4978736;28;114565;-64
2024/03/25 07:59:37;;;;;;;17.00;5.60;;;;;;;11.33;60.21;100690.66;4980048;28;114028;-64
2024/03/25 08:02:04;;;;;;;15.85;5.93;;;;;;;11.43;59.97;100686.63;4983714;28;123246;-64
2024/03/25 08:04:30;;;;;;;12.95;5.60;;;;;;;11.56;60.10;100688.63;4977337;28;123938;-64
2024/03/25 08:06:56;;;;;;;12.93;5.70;;;;;;;11.65;60.06;100685.50;4959119;28;113387;-65
2024/03/25 08:09:23;;;;;;;18.67;5.30;;;;;;;11.76;60.00;100688.47;4979261;28;113893;-64
2024/03/25 08:11:49;;;;;;;12.30;5.18;;;;;;;11.87;59.94;100690.56;4963841;28;124392;-65
2024/03/25 08:14:15;;;;;;;14.45;5.32;;;;;;;11.96;59.78;100690.09;4976540;28;124352;-64
2024/03/25 08:16:42;;;;;;;16.48;5.78;;;;;;;12.07;59.86;100700.13;4977707;28;114112;-64
2024/03/25 08:19:08;;;;;;;14.23;5.40;;;;;;;12.16;59.78;100696.97;4979376;28;114335;-64
2024/03/25 08:21:34;;;;;;;12.50;5.25;;;;;;;12.26;59.62;100692.91;4978106;28;124126;-65
2024/03/25 08:24:01;;;;;;;17.48;5.72;;;;;;;12.35;59.44;100695.97;4976557;28;123592;-64
2024/03/25 08:26:27;;;;;;;16.38;5.40;;;;;;;12.42;59.38;100697.34;4978951;28;114601;-64
2024/03/25 08:28:53;;;;;;;15.07;5.07;;;;;;;12.51;59.40;100696.84;4975514;28;114706;-65
2024/03/25 08:31:19;;;;;;;13.50;4.90;;;;;;;12.60;59.31;100706.97;4962140;28;124256;-64
2024/03/25 08:33:46;;;;;;;11.65;4.63;;;;;;;12.71;59.29;100697.53;4975192;28;123980;-64
2024/03/25 08:36:12;;;;;;;9.80;4.75;;;;;;;12.81;59.28;100704.91;4975715;28;115268;-64
2024/03/25 08:38:38;;;;;;;11.00;4.38;;;;;;;12.91;59.12;100699.91;4965194;28;114129;-64
2024/03/25 08:41:07;;;;;;;13.40;4.68;;;;;;;13.00;59.06;100703.88;4981526;28;124783;-64
2024/03/25 08:43:34;;;;;;;16.75;4.60;;;;;;;13.09;58.97;100702.47;4980983;28;97608;-64
2024/03/25 08:46:03;;;;;;;11.50;3.78;;;;;;;13.15;58.81;100699.47;4962087;28;114584;-66
2024/03/25 08:48:29;;;;;;;9.48;3.28;;;;;;;13.22;58.80;100698.13;4977763;28;114242;-65
2024/03/25 08:50:56;;;;;;;11.15;3.80;;;;;;;13.29;58.72;100698.66;4975470;28;126508;-64
2024/03/25 08:53:22;;;;;;;7.70;3.13;;;;;;;13.35;58.61;100683.19;4991324;28;125300;-65
2024/03/25 08:55:49;;;;;;;8.93;3.05;;;;;;;13.42;58.53;100689.88;4978852;28;114448;-64
2024/03/25 08:58:16;;;;;;;10.57;3.47;;;;;;;13.49;58.55;100684.22;4985292;28;114052;-64
2024/03/25 09:00:44;;;;;;;8.68;2.90;;;;;;;13.54;58.32;100682.09;4972658;28;124792;-65
2024/03/25 09:03:10;;;;;;;10.50;2.97;;;;;;;13.58;58.22;100679.19;4984839;28;124005;-64
2024/03/25 09:05:40;;;;;;;9.52;3.20;;;;;;;13.65;58.32;100678.81;4975871;28;114613;-65
2024/03/25 09:08:11;;;;;;;10.70;2.58;;;;;;;13.72;58.22;100674.81;4975479;28;114386;-65
2024/03/25 09:13:25;;;;;;;6.57;1.93;;;;;;;13.87;57.99;100686.34;4982358;28;124313;-65
2024/03/25 09:15:51;;;;;;;9.68;2.38;;;;;;;13.96;58.17;100683.13;4977485;28;114349;-65
2024/03/25 09:18:20;;;;;;;8.15;2.47;;;;;;;14.05;58.09;100682.53;4962103;28;113040;-65
2024/03/25 09:20:47;;;;;;;7.18;2.28;;;;;;;14.14;57.83;100675.78;4975514;28;124005;-65
2024/03/25 09:23:13;;;;;;;9.50;2.72;;;;;;;14.21;57.69;100680.63;4976019;28;124933;-65
2024/03/25 09:25:39;;;;;;;6.60;2.10;;;;;;;14.30;57.64;100675.69;4968674;28;115213;-65
2024/03/25 09:28:07;;;;;;;6.07;1.80;;;;;;;14.37;57.34;100682.31;4988829;28;115226;-65
2024/03/25 09:30:33;;;;;;;7.93;2.30;;;;;;;14.41;57.33;100678.53;4978872;28;123970;-65
2024/03/25 09:32:59;;;;;;;5.95;2.35;;;;;;;14.45;57.42;100669.38;4983593;28;124071;-65
2024/03/25 09:35:25;;;;;;;6.35;2.45;;;;;;;14.53;57.14;100667.06;4975383;28;113241;-65
2024/03/25 09:37:52;;;;;;;8.10;2.60;;;;;;;14.55;56.92;100659.81;4977275;28;114056;-65
2024/03/25 09:40:18;;;;;;;10.48;2.13;;;;;;;14.55;56.55;100664.31;4971079;28;124325;-66
2024/03/25 09:42:48;;;;;;;11.07;2.75;;;;;;;14.55;56.65;100654.47;4980158;28;124522;-65
2024/03/25 09:45:18;;;;;;;9.68;2.53;;;;;;;14.55;56.54;100659.81;4977651;28;114230;-65
2024/03/25 09:47:46;;;;;;;3.45;2.20;;;;;;;14.54;56.27;100657.25;4964242;28;113099;-65
2024/03/25 09:50:19;;;;;;;4.90;2.20;;;;;;;14.46;56.06;100649.75;4972895;28;123295;-65
2024/03/25 09:52:50;;;;;;;7.85;2.63;;;;;;;14.41;55.97;100652.72;4980930;28;123981;-65
2024/03/25 09:55:17;;;;;;;6.53;2.63;;;;;;;14.38;56.17;100641.41;4978077;28;114502;-65
2024/03/25 09:57:44;;;;;;;7.35;2.70;;;;;;;14.39;56.13;100648.44;4976988;28;113998;-65
2024/03/25 10:00:11;;;;;;;6.75;2.72;;;;;;;14.48;56.45;100650.50;4977465;28;124086;-66
2024/03/25 10:02:44;;;;;;;6.95;2.70;;;;;;;14.58;56.40;100633.00;4983149;28;124643;-66
2024/03/25 10:05:11;;;;;;;7.30;2.80;;;;;;;14.67;56.48;100641.34;4977963;28;114171;-66
2024/03/25 10:07:38;;;;;;;4.70;2.45;;;;;;;14.79;56.63;100630.75;4976855;28;113972;-66
2024/03/25 10:10:05;;;;;;;6.15;2.97;;;;;;;14.89;56.28;100620.31;4980550;28;124083;-66
2024/03/25 10:12:33;;;;;;;5.45;2.47;;;;;;;14.96;55.92;100624.28;4979122;28;124221;-65
2024/03/25 10:14:59;;;;;;;5.88;2.60;;;;;;;14.93;55.63;100616.47;4979519;28;115146;-66
2024/03/25 10:17:26;;;;;;;5.35;2.83;;;;;;;14.91;55.76;100617.53;4979412;28;115370;-65
2024/03/25 10:19:55;;;;;;;8.02;2.70;;;;;;;14.95;55.63;100614.56;4969790;28;124121;-65
2024/03/25 10:22:21;;;;;;;8.48;2.92;;;;;;;15.00;55.42;100616.94;4987172;28;123769;-65
2024/03/25 10:24:48;;;;;;;6.15;3.17;;;;;;;15.04;55.33;100606.91;4967206;28;114163;-65
2024/03/25 10:27:22;;;;;;;6.40;2.97;;;;;;;15.05;55.39;100611.28;4976546;28;114354;-65
2024/03/25 10:29:52;;;;;;;5.80;2.90;;;;;;;15.08;55.29;100608.41;4979958;28;124163;-65
2024/03/25 10:32:19;;;;;;;6.53;2.80;;;;;;;15.07;55.08;100598.69;4981848;28;124072;-65
2024/03/25 10:34:46;;;;;;;8.30;3.25;;;;;;;15.04;54.97;100601.59;4975129;28;114344;-65
2024/03/25 10:37:14;;;;;;;8.35;3.15;;;;;;;15.02;55.23;100598.16;4965204;28;112993;-65
2024/03/25 10:39:54;;;;;;;8.45;3.33;;;;;;;15.01;54.86;100596.44;4985462;28;124812;-65
2024/03/25 10:42:22;;;;;;;6.43;3.25;;;;;;;14.97;55.03;100599.34;4984464;28;123776;-65
2024/03/25 10:44:52;;;;;;;8.23;3.63;;;;;;;15.01;54.70;100588.44;4982030;28;114602;-65
2024/03/25 10:47:28;;;;;;;6.95;3.08;;;;;;;14.98;54.59;100585.03;4977742;28;114078;-66
2024/03/25 10:49:59;;;;;;;6.03;2.83;;;;;;;14.98;54.55;100577.03;4979426;28;124325;-65
2024/03/25 10:52:29;;;;;;;6.30;3.17;;;;;;;15.02;54.66;100574.16;4982284;28;124380;-65
2024/03/25 10:54:55;;;;;;;8.38;3.08;;;;;;;15.04;54.56;100575.75;4981129;28;114265;-65
2024/03/25 10:57:23;;;;;;;7.15;3.05;;;;;;;15.13;54.68;100568.94;4973895;28;113149;-65
2024/03/25 10:59:49;;;;;;;8.65;3.38;;;;;;;15.19;54.58;100571.19;4977258;28;125513;-65
2024/03/25 11:02:17;;;;;;;8.23;2.90;;;;;;;15.26;54.41;100563.63;4980171;28;124549;-65
2024/03/25 11:04:45;;;;;;;6.05;2.67;;;;;;;15.31;54.78;100557.00;4997253;28;115133;-66
2024/03/25 11:07:13;;;;;;;8.75;3.20;;;;;;;15.40;54.59;100563.50;4982133;28;114438;-65
2024/03/25 11:09:40;;;;;;;6.75;3.35;;;;;;;15.45;54.20;100557.84;4980826;28;124161;-65
2024/03/25 11:12:10;;;;;;;7.18;3.00;;;;;;;15.49;54.10;100559.34;4972228;28;122998;-66
2024/03/25 11:14:37;;;;;;;8.43;3.60;;;;;;;15.53;54.04;100567.00;4966053;28;113614;-65
2024/03/25 11:17:16;;;;;;;8.57;3.63;;;;;;;15.56;54.03;100555.28;4974537;28;113638;-65
2024/03/25 11:19:43;;;;;;;6.82;3.10;;;;;;;15.67;53.96;100552.72;4987740;28;124113;-66
2024/03/25 11:22:10;;;;;;;8.43;2.70;;;;;;;15.75;54.16;100545.03;4984361;28;123952;-66
2024/03/25 11:24:38;;;;;;;7.97;3.20;;;;;;;15.86;54.04;100538.06;4977154;28;114170;-66